createdAt,value
2018-11-12T00:00:33.822Z,98044.20
2018-11-12T00:03:03.272Z,98045.52
2018-11-12T00:05:32.381Z,98044.42
2018-11-12T00:08:01.491Z,98047.23
2018-11-12T00:10:31.601Z,98048.34
2018-11-12T00:13:00.586Z,98045.16
2018-11-12T00:15:29.606Z,98048.74
2018-11-12T00:17:58.627Z,98049.20
2018-11-12T00:20:27.594Z,98048.28
2018-11-12T00:22:56.786Z,98051.70
2018-11-12T00:25:26.044Z,98057.82
2018-11-12T00:27:55.390Z,98061.05
2018-11-12T00:30:24.797Z,98064.41
2018-11-12T00:32:54.122Z,98054.47
2018-11-12T00:35:23.471Z,98062.77
2018-11-12T00:37:52.644Z,98060.64
2018-11-12T00:40:21.677Z,98060.23
2018-11-12T00:42:50.689Z,98064.42
2018-11-12T00:45:19.736Z,98057.89
2018-11-12T00:47:48.764Z,98075.17
2018-11-12T00:50:17.811Z,98065.60
2018-11-12T00:52:46.828Z,98070.66
2018-11-12T00:55:16.361Z,98067.73
2018-11-12T00:57:45.411Z,98067.97
2018-11-12T01:00:16.362Z,98065.56
2018-11-12T01:02:46.548Z,98063.39
2018-11-12T01:05:16.330Z,98067.39
2018-11-12T01:07:45.997Z,98072.14
2018-11-12T01:10:16.167Z,98061.59
2018-11-12T01:12:45.431Z,98046.80
2018-11-12T01:15:15.782Z,98052.92
2018-11-12T01:17:45.055Z,98055.15
2018-11-12T01:20:15.176Z,98049.89
2018-11-12T01:22:44.322Z,98055.55
2018-11-12T01:25:13.928Z,98055.20
2018-11-12T01:27:43.723Z,98060.86
2018-11-12T01:30:14.015Z,98048.39
2018-11-12T01:32:43.416Z,98050.03
2018-11-12T01:35:13.548Z,98053.58
2018-11-12T01:37:42.735Z,98045.81
2018-11-12T01:40:12.538Z,98043.59
2018-11-12T01:42:42.209Z,98048.49
2018-11-12T01:45:13.885Z,98049.86
2018-11-12T01:47:44.141Z,98047.94
2018-11-12T01:50:13.656Z,98048.14
2018-11-12T01:52:43.385Z,98060.97
2018-11-12T01:55:13.510Z,98058.16
2018-11-12T01:57:42.990Z,98055.62
2018-11-12T02:00:17.288Z,98059.17
2018-11-12T02:02:47.523Z,98054.77
2018-11-12T02:05:17.154Z,98055.63
2018-11-12T02:07:46.165Z,98054.05
2018-11-12T02:10:16.345Z,98065.92
2018-11-12T02:12:45.406Z,98064.25
2018-11-12T02:15:16.190Z,98055.05
2018-11-12T02:17:46.094Z,98051.73
2018-11-12T02:20:16.346Z,98055.39
2018-11-12T02:22:46.296Z,98058.16
2018-11-12T02:25:15.711Z,98053.89
2018-11-12T02:27:44.731Z,98053.08
2018-11-12T02:30:16.684Z,98051.85
2018-11-12T02:32:45.722Z,98056.78
2018-11-12T02:35:14.847Z,98063.77
2018-11-12T02:37:43.953Z,98065.63
2018-11-12T02:40:13.292Z,98064.39
2018-11-12T02:42:43.217Z,98068.91
2018-11-12T02:45:13.215Z,98067.86
2018-11-12T02:47:43.190Z,98071.48
2018-11-12T02:50:14.486Z,98069.97
2018-11-12T02:52:43.595Z,98069.64
2018-11-12T02:55:14.609Z,98078.71
2018-11-12T02:57:44.462Z,98077.35
2018-11-12T03:00:19.155Z,98075.22
2018-11-12T03:02:48.222Z,98070.91
2018-11-12T03:05:17.329Z,98073.53
2018-11-12T03:07:46.465Z,98078.88
2018-11-12T03:10:19.161Z,98082.52
2018-11-12T03:12:48.204Z,98081.25
2018-11-12T03:15:17.968Z,98075.19
2018-11-12T03:17:47.673Z,98076.50
2018-11-12T03:20:17.889Z,98072.52
2018-11-12T03:22:46.994Z,98073.21
2018-11-12T03:25:17.383Z,98075.14
2018-11-12T03:27:47.027Z,98080.48
2018-11-12T03:30:17.422Z,98076.45
2018-11-12T03:32:47.237Z,98078.96
2018-11-12T03:35:16.532Z,98077.03
2018-11-12T03:37:46.623Z,98077.15
2018-11-12T03:40:18.448Z,98083.38
2018-11-12T03:42:47.949Z,98083.50
2018-11-12T03:45:18.234Z,98081.37
2018-11-12T03:47:47.295Z,98089.70
2018-11-12T03:50:17.558Z,98089.37
2018-11-12T03:52:46.593Z,98082.42
2018-11-12T03:55:16.889Z,98089.93
2018-11-12T03:57:46.012Z,98090.88
2018-11-12T04:00:19.748Z,98093.88
2018-11-12T04:02:48.765Z,98091.05
2018-11-12T04:05:17.806Z,98096.41
2018-11-12T04:07:46.827Z,98092.48
2018-11-12T04:10:17.288Z,98094.69
2018-11-12T04:12:46.381Z,98094.32
2018-11-12T04:15:24.120Z,98097.89
2018-11-12T04:17:53.215Z,98101.04
2018-11-12T04:20:23.281Z,98105.47
2018-11-12T04:23:00.308Z,98103.30
2018-11-12T04:25:29.346Z,98109.08
2018-11-12T04:27:58.413Z,98108.73
2018-11-12T04:30:27.466Z,98101.76
2018-11-12T04:32:56.536Z,98108.36
2018-11-12T04:35:26.331Z,98100.97
2018-11-12T04:37:55.314Z,98101.38
2018-11-12T04:40:24.369Z,98108.84
2018-11-12T04:42:53.422Z,98110.23
2018-11-12T04:45:23.427Z,98112.48
2018-11-12T04:47:53.201Z,98116.95
2018-11-12T04:50:23.576Z,98113.02
2018-11-12T04:52:53.226Z,98112.97
2018-11-12T04:55:23.055Z,98120.84
2018-11-12T04:57:52.020Z,98115.30
2018-11-12T05:00:25.944Z,98112.67
2018-11-12T05:02:55.123Z,98113.98
2018-11-12T05:05:25.475Z,98121.37
2018-11-12T05:07:54.479Z,98117.92
2018-11-12T05:10:24.494Z,98119.27
2018-11-12T05:12:54.012Z,98116.27
2018-11-12T05:15:23.904Z,98117.17
2018-11-12T05:17:52.926Z,98120.20
2018-11-12T05:20:24.137Z,98119.41
2018-11-12T05:22:53.134Z,98123.50
2018-11-12T05:25:22.161Z,98122.74
2018-11-12T05:27:51.225Z,98123.12
2018-11-12T05:30:24.785Z,98116.94
2018-11-12T05:32:53.900Z,98119.64
2018-11-12T05:35:24.248Z,98116.05
2018-11-12T05:37:53.435Z,98127.50
2018-11-12T05:40:26.532Z,98135.30
2018-11-12T05:42:55.749Z,98134.97
2018-11-12T05:45:26.872Z,98133.66
2018-11-12T05:47:55.931Z,98132.75
2018-11-12T05:50:26.233Z,98142.39
2018-11-12T05:52:58.633Z,98155.05
2018-11-12T05:55:28.584Z,98149.73
2018-11-12T05:57:57.778Z,98138.00
2018-11-12T06:00:28.449Z,98142.66
2018-11-12T06:02:57.523Z,98154.91
2018-11-12T06:05:26.533Z,98156.16
2018-11-12T06:07:55.639Z,98153.88
2018-11-12T06:10:26.124Z,98148.59
2018-11-12T06:12:55.118Z,98152.94
2018-11-12T06:15:24.168Z,98147.69
2018-11-12T06:17:53.192Z,98149.41
2018-11-12T06:20:25.392Z,98150.58
2018-11-12T06:22:54.594Z,98155.16
2018-11-12T06:25:25.016Z,98159.88
2018-11-12T06:27:54.127Z,98160.03
2018-11-12T06:30:25.582Z,98158.15
2018-11-12T06:32:54.611Z,98157.20
2018-11-12T06:35:23.683Z,98161.03
2018-11-12T06:37:53.326Z,98147.98
2018-11-12T06:40:23.688Z,98154.55
2018-11-12T06:42:52.816Z,98163.36
2018-11-12T06:45:23.105Z,98163.35
2018-11-12T06:47:52.917Z,98162.47
2018-11-12T06:50:23.459Z,98160.43
2018-11-12T06:52:52.507Z,98154.40
2018-11-12T06:55:21.986Z,98164.06
2018-11-12T06:57:51.360Z,98164.17
2018-11-12T07:00:24.930Z,98162.22
2018-11-12T07:02:54.063Z,98166.31
2018-11-12T07:05:23.409Z,98166.70
2018-11-12T07:07:52.518Z,98164.84
2018-11-12T07:10:22.773Z,98166.20
2018-11-12T07:13:08.778Z,98161.00
2018-11-12T07:15:43.672Z,98162.77
2018-11-12T07:18:27.567Z,98155.48
2018-11-12T07:20:56.639Z,98160.81
2018-11-12T07:23:25.733Z,98158.54
2018-11-12T07:25:54.743Z,98162.09
2018-11-12T07:28:23.746Z,98163.31
2018-11-12T07:30:52.884Z,98150.55
2018-11-12T07:33:21.886Z,98160.84
2018-11-12T07:35:50.926Z,98156.50
2018-11-12T07:38:19.879Z,98153.33
2018-11-12T07:40:48.915Z,98159.16
2018-11-12T07:43:17.964Z,98166.02
2018-11-12T07:45:47.038Z,98165.22
2018-11-12T07:48:16.065Z,98159.39
2018-11-12T07:50:45.120Z,98166.63
2018-11-12T07:53:14.176Z,98166.97
2018-11-12T07:55:43.244Z,98170.95
2018-11-12T07:58:12.332Z,98164.86
2018-11-12T08:00:41.402Z,98163.45
2018-11-12T08:03:11.363Z,98156.14
2018-11-12T08:05:40.871Z,98162.61
2018-11-12T08:08:10.175Z,98160.08
2018-11-12T08:10:39.269Z,98153.05
2018-11-12T08:13:08.331Z,98162.91
2018-11-12T08:15:37.354Z,98164.07
2018-11-12T08:18:06.562Z,98153.14
2018-11-12T08:20:35.707Z,98156.86
2018-11-12T08:23:04.948Z,98153.69
2018-11-12T08:25:33.984Z,98159.10
2018-11-12T08:28:03.010Z,98157.91
2018-11-12T08:30:32.228Z,98164.09
2018-11-12T08:33:01.385Z,98153.89
2018-11-12T08:35:30.499Z,98162.14
2018-11-12T08:37:59.555Z,98158.20
2018-11-12T08:40:29.440Z,98155.25
2018-11-12T08:42:58.446Z,98158.17
2018-11-12T08:45:28.530Z,98150.29
2018-11-12T08:47:57.690Z,98156.38
2018-11-12T08:50:27.602Z,98157.86
2018-11-12T08:52:57.283Z,98150.16
2018-11-12T08:55:27.779Z,98149.05
2018-11-12T08:58:00.261Z,98145.62
2018-11-12T09:00:29.422Z,98150.17
2018-11-12T09:02:58.547Z,98137.95
2018-11-12T09:05:28.815Z,98151.47
2018-11-12T09:07:59.356Z,98145.31
2018-11-12T09:10:29.807Z,98146.17
2018-11-12T09:12:58.957Z,98148.91
2018-11-12T09:15:28.112Z,98147.28
2018-11-12T09:17:57.181Z,98153.48
2018-11-12T09:20:27.368Z,98150.39
2018-11-12T09:22:56.590Z,98146.77
2018-11-12T09:25:26.710Z,98140.69
2018-11-12T09:27:55.777Z,98139.51
2018-11-12T09:30:26.101Z,98133.08
2018-11-12T09:32:55.334Z,98134.66
2018-11-12T09:35:25.661Z,98143.34
2018-11-12T09:37:55.571Z,98132.76
2018-11-12T09:40:27.865Z,98139.35
2018-11-12T09:42:56.945Z,98138.56
2018-11-12T09:45:26.041Z,98136.36
2018-11-12T09:47:55.201Z,98136.92
2018-11-12T09:50:25.338Z,98144.31
2018-11-12T09:52:55.596Z,98146.10
2018-11-12T09:55:25.581Z,98144.09
2018-11-12T09:57:56.759Z,98144.90
2018-11-12T10:00:25.991Z,98157.70
2018-11-12T10:02:55.655Z,98143.03
2018-11-12T10:05:25.877Z,98152.45
2018-11-12T10:08:00.786Z,98157.43
2018-11-12T10:10:38.744Z,98149.78
2018-11-12T10:13:10.183Z,98153.44
2018-11-12T10:15:40.484Z,98154.38
2018-11-12T10:18:09.209Z,98144.01
2018-11-12T10:20:35.350Z,98136.20
2018-11-12T10:23:04.512Z,98129.02
2018-11-12T10:25:33.564Z,98117.53
2018-11-12T10:28:02.615Z,98115.72
2018-11-12T10:30:31.658Z,98125.39
2018-11-12T10:33:00.754Z,98117.47
2018-11-12T10:35:29.873Z,98125.72
2018-11-12T10:37:58.914Z,98114.84
2018-11-12T10:40:28.015Z,98109.23
2018-11-12T10:42:57.079Z,98109.79
2018-11-12T10:45:26.209Z,98107.42
2018-11-12T10:47:55.283Z,98103.90
2018-11-12T10:50:24.411Z,98104.37
2018-11-12T10:52:53.510Z,98098.45
2018-11-12T10:55:23.876Z,98101.91
2018-11-12T10:57:53.171Z,98098.22
2018-11-12T11:00:33.994Z,98096.94
2018-11-12T11:03:10.864Z,98094.01
2018-11-12T11:05:42.651Z,98090.72
2018-11-12T11:08:12.307Z,98089.23
2018-11-12T11:10:41.495Z,98090.00
2018-11-12T11:13:10.366Z,98085.72
2018-11-12T11:15:39.653Z,98085.95
2018-11-12T11:18:08.636Z,98094.02
2018-11-12T11:20:37.779Z,98095.33
2018-11-12T11:23:06.865Z,98079.91
2018-11-12T11:25:35.951Z,98079.87
2018-11-12T11:28:05.215Z,98090.60
2018-11-12T11:30:34.250Z,98082.52
2018-11-12T11:33:03.468Z,98080.84
2018-11-12T11:35:32.536Z,98074.64
2018-11-12T11:38:01.693Z,98076.74
2018-11-12T11:40:30.807Z,98070.70
2018-11-12T11:42:59.804Z,98066.23
2018-11-12T11:45:28.893Z,98069.45
2018-11-12T11:47:58.144Z,98074.78
2018-11-12T11:50:27.556Z,98074.95
2018-11-12T11:52:56.508Z,98069.40
2018-11-12T11:55:25.646Z,98060.51
2018-11-12T11:57:54.737Z,98068.05
2018-11-12T12:00:28.051Z,98067.72
2018-11-12T12:02:58.202Z,98071.46
2018-11-12T12:05:27.754Z,98063.58
2018-11-12T12:07:57.437Z,98057.69
2018-11-12T12:10:26.526Z,98065.17
2018-11-12T12:12:55.594Z,98062.23
2018-11-12T12:15:24.753Z,98058.70
2018-11-12T12:17:53.978Z,98051.58
2018-11-12T12:20:24.341Z,98056.67
2018-11-12T12:22:53.953Z,98047.64
2018-11-12T12:25:23.070Z,98045.91
2018-11-12T12:27:52.147Z,98047.50
2018-11-12T12:30:23.294Z,98045.28
2018-11-12T12:32:53.316Z,98038.02
2018-11-12T12:35:22.447Z,98038.06
2018-11-12T12:37:51.618Z,98039.76
2018-11-12T12:40:21.722Z,98042.81
2018-11-12T12:42:50.762Z,98047.37
2018-11-12T12:45:21.434Z,98037.17
2018-11-12T12:47:50.712Z,98038.77
2018-11-12T12:50:19.953Z,98032.92
2018-11-12T12:52:49.048Z,98038.41
2018-11-12T12:55:18.463Z,98032.16
2018-11-12T12:57:47.676Z,98034.34
2018-11-12T13:00:25.718Z,98036.73
2018-11-12T13:02:54.973Z,98038.81
2018-11-12T13:05:24.035Z,98033.64
2018-11-12T13:07:53.039Z,98036.80
2018-11-12T13:10:23.055Z,98032.87
2018-11-12T13:12:52.153Z,98037.59
2018-11-12T13:15:21.457Z,98042.26
2018-11-12T13:17:51.173Z,98045.35
2018-11-12T13:20:22.669Z,98032.87
2018-11-12T13:22:51.909Z,98042.37
2018-11-12T13:25:21.047Z,98041.31
2018-11-12T13:27:50.145Z,98042.77
2018-11-12T13:30:21.597Z,98043.78
2018-11-12T13:32:50.940Z,98045.50
2018-11-12T13:35:24.181Z,98039.95
2018-11-12T13:37:53.338Z,98040.59
2018-11-12T13:40:24.387Z,98042.15
2018-11-12T13:42:55.799Z,98042.23
2018-11-12T13:45:25.314Z,98039.67
2018-11-12T13:47:54.637Z,98044.80
2018-11-12T13:50:25.004Z,98035.25
2018-11-12T13:52:54.372Z,98036.59
2018-11-12T13:55:24.140Z,98039.13
2018-11-12T13:57:53.289Z,98046.05
2018-11-12T14:00:27.788Z,98040.06
2018-11-12T14:02:57.155Z,98051.09
2018-11-12T14:05:26.962Z,98046.64
2018-11-12T14:07:56.017Z,98044.91
2018-11-12T14:10:26.801Z,98036.26
2018-11-12T14:12:56.683Z,98031.48
2018-11-12T14:15:26.100Z,98040.01
2018-11-12T14:17:55.691Z,98044.77
2018-11-12T14:20:25.461Z,98050.05
2018-11-12T14:22:54.516Z,98042.83
2018-11-12T14:25:24.448Z,98047.14
2018-11-12T14:27:54.590Z,98042.65
2018-11-12T14:30:25.371Z,98046.78
2018-11-12T14:32:54.414Z,98040.00
2018-11-12T14:35:23.647Z,98038.50
2018-11-12T14:37:52.894Z,98040.86
2018-11-12T14:40:22.031Z,98051.72
2018-11-12T14:42:51.114Z,98052.71
2018-11-12T14:45:21.238Z,98049.66
2018-11-12T14:47:50.704Z,98047.19
2018-11-12T14:50:19.796Z,98044.25
2018-11-12T14:52:48.870Z,98040.27
2018-11-12T14:55:19.398Z,98049.28
2018-11-12T14:57:48.365Z,98053.34
2018-11-12T15:00:21.499Z,98060.62
2018-11-12T15:02:51.674Z,98050.94
2018-11-12T15:05:22.210Z,98046.17
2018-11-12T15:07:51.302Z,98052.13
2018-11-12T15:10:20.469Z,98054.80
2018-11-12T15:12:49.836Z,98054.05
2018-11-12T15:15:18.922Z,98060.03
2018-11-12T15:17:48.112Z,98059.87
2018-11-12T15:20:18.436Z,98064.45
2018-11-12T15:22:47.472Z,98070.20
2018-11-12T15:25:25.167Z,98077.92
2018-11-12T15:27:54.257Z,98079.97
2018-11-12T15:30:24.263Z,98076.31
2018-11-12T15:32:54.511Z,98080.42
2018-11-12T15:35:23.766Z,98079.73
2018-11-12T15:37:52.873Z,98087.59
2018-11-12T15:40:21.945Z,98085.27
2018-11-12T15:42:51.066Z,98093.67
2018-11-12T15:45:21.575Z,98097.91
2018-11-12T15:47:50.825Z,98108.39
2018-11-12T15:50:31.109Z,98106.39
2018-11-12T15:53:00.129Z,98100.32
2018-11-12T15:55:29.283Z,98097.33
2018-11-12T15:57:58.506Z,98096.66
2018-11-12T16:00:27.765Z,98102.95
2018-11-12T16:02:56.844Z,98104.13
2018-11-12T16:05:25.857Z,98091.38
2018-11-12T16:07:54.965Z,98090.59
2018-11-12T16:10:24.059Z,98086.23
2018-11-12T16:12:53.090Z,98084.27
2018-11-12T16:15:22.669Z,98087.78
2018-11-12T16:17:51.781Z,98088.95
2018-11-12T16:20:25.321Z,98087.55
2018-11-12T16:22:55.049Z,98090.16
2018-11-12T16:25:24.515Z,98087.16
2018-11-12T16:27:53.622Z,98096.30
2018-11-12T16:30:22.830Z,98095.83
2018-11-12T16:32:51.974Z,98092.12
2018-11-12T16:35:22.601Z,98096.03
2018-11-12T16:37:52.807Z,98099.72
2018-11-12T16:40:21.951Z,98092.60
2018-11-12T16:42:51.026Z,98102.38
2018-11-12T16:45:20.153Z,98096.50
2018-11-12T16:47:49.182Z,98101.82
2018-11-12T16:50:18.282Z,98103.87
2018-11-12T16:52:47.583Z,98100.26
2018-11-12T16:55:18.208Z,98104.42
2018-11-12T16:57:47.453Z,98107.78
2018-11-12T17:00:17.669Z,98106.80
2018-11-12T17:02:47.033Z,98107.38
2018-11-12T17:05:17.706Z,98109.91
2018-11-12T17:07:46.751Z,98099.94
2018-11-12T17:10:17.130Z,98104.51
2018-11-12T17:12:46.905Z,98102.86
2018-11-12T17:15:16.166Z,98104.92
2018-11-12T17:17:45.584Z,98112.58
2018-11-12T17:20:16.122Z,98108.66
2018-11-12T17:22:45.196Z,98108.93
2018-11-12T17:25:15.716Z,98113.77
2018-11-12T17:27:45.292Z,98109.98
2018-11-12T17:30:17.565Z,98113.55
2018-11-12T17:32:48.077Z,98111.63
2018-11-12T17:35:18.638Z,98113.44
2018-11-12T17:37:47.706Z,98111.38
2018-11-12T17:40:20.193Z,98115.05
2018-11-12T17:42:50.411Z,98120.08
2018-11-12T17:45:21.149Z,98124.36
2018-11-12T17:47:51.581Z,98121.69
2018-11-12T17:50:20.751Z,98126.17
2018-11-12T17:52:49.952Z,98127.66
2018-11-12T17:55:19.029Z,98134.98
2018-11-12T17:57:48.092Z,98134.81
2018-11-12T18:00:25.450Z,98137.78
2018-11-12T18:02:54.568Z,98130.45
2018-11-12T18:05:23.615Z,98134.58
2018-11-12T18:07:52.834Z,98138.59
2018-11-12T18:10:21.951Z,98145.50
2018-11-12T18:12:51.005Z,98140.74
2018-11-12T18:15:21.228Z,98137.53
2018-11-12T18:17:50.447Z,98143.20
2018-11-12T18:20:23.162Z,98137.78
2018-11-12T18:22:52.950Z,98141.37
2018-11-12T18:25:22.085Z,98146.47
2018-11-12T18:27:51.183Z,98150.73
2018-11-12T18:30:22.825Z,98147.77
2018-11-12T18:32:52.891Z,98150.86
2018-11-12T18:35:22.065Z,98151.06
2018-11-12T18:37:51.286Z,98151.53
2018-11-12T18:40:21.759Z,98146.63
2018-11-12T18:42:50.825Z,98143.31
2018-11-12T18:45:21.073Z,98145.89
2018-11-12T18:47:50.404Z,98141.06
2018-11-12T18:50:21.625Z,98139.95
2018-11-12T18:52:50.880Z,98147.28
2018-11-12T18:55:20.031Z,98150.85
2018-11-12T18:57:49.498Z,98147.66
2018-11-12T19:00:20.958Z,98142.57
2018-11-12T19:02:50.866Z,98144.36
2018-11-12T19:05:24.230Z,98151.78
2018-11-12T19:07:55.270Z,98152.71
2018-11-12T19:10:27.743Z,98149.13
2018-11-12T19:12:56.800Z,98153.58
2018-11-12T19:15:27.648Z,98148.99
2018-11-12T19:18:00.029Z,98152.80
2018-11-12T19:20:29.235Z,98146.03
2018-11-12T19:22:58.258Z,98143.53
2018-11-12T19:25:27.311Z,98142.84
2018-11-12T19:27:56.420Z,98142.28
2018-11-12T19:30:26.840Z,98144.75
2018-11-12T19:32:56.023Z,98140.44
2018-11-12T19:35:26.528Z,98148.12
2018-11-12T19:37:55.656Z,98153.84
2018-11-12T19:40:25.995Z,98142.50
2018-11-12T19:42:55.631Z,98143.66
2018-11-12T19:45:24.677Z,98141.43
2018-11-12T19:47:54.263Z,98143.61
2018-11-12T19:50:24.664Z,98147.94
2018-11-12T19:52:55.705Z,98151.33
2018-11-12T19:55:24.740Z,98159.53
2018-11-12T19:57:53.792Z,98158.86
2018-11-12T20:00:24.328Z,98161.45
2018-11-12T20:02:54.702Z,98163.69
2018-11-12T20:05:23.811Z,98170.52
2018-11-12T20:07:52.869Z,98169.59
2018-11-12T20:10:22.582Z,98162.22
2018-11-12T20:12:51.719Z,98173.03
2018-11-12T20:15:22.151Z,98175.94
2018-11-12T20:17:51.780Z,98175.14
2018-11-12T20:20:22.217Z,98175.94
2018-11-12T20:22:51.527Z,98183.58
2018-11-12T20:25:20.932Z,98183.25
2018-11-12T20:27:51.058Z,98181.06
2018-11-12T20:30:25.465Z,98179.89
2018-11-12T20:32:54.574Z,98180.02
2018-11-12T20:35:23.624Z,98181.84
2018-11-12T20:37:52.644Z,98177.48
2018-11-12T20:40:21.849Z,98168.40
2018-11-12T20:42:50.950Z,98169.59
2018-11-12T20:45:21.376Z,98168.78
2018-11-12T20:47:52.070Z,98172.74
2018-11-12T20:50:22.476Z,98171.88
2018-11-12T20:52:51.982Z,98183.28
2018-11-12T20:55:21.934Z,98187.73
2018-11-12T20:57:50.969Z,98185.92
2018-11-12T21:00:21.296Z,98184.08
2018-11-12T21:02:51.311Z,98185.86
2018-11-12T21:05:22.555Z,98180.50
2018-11-12T21:07:52.131Z,98180.90
2018-11-12T21:10:21.575Z,98184.09
2018-11-12T21:12:50.963Z,98176.17
2018-11-12T21:15:21.084Z,98186.23
2018-11-12T21:17:50.489Z,98185.63
2018-11-12T21:20:21.726Z,98184.72
2018-11-12T21:22:50.863Z,98182.22
2018-11-12T21:25:21.250Z,98183.66
2018-11-12T21:27:50.422Z,98188.22
2018-11-12T21:30:25.576Z,98188.27
2018-11-12T21:32:54.773Z,98194.58
2018-11-12T21:35:23.996Z,98193.51
2018-11-12T21:37:54.763Z,98194.27
2018-11-12T21:40:25.985Z,98194.33
2018-11-12T21:42:55.075Z,98188.33
2018-11-12T21:45:26.524Z,98196.24
2018-11-12T21:47:55.760Z,98193.25
2018-11-12T21:50:24.945Z,98192.34
2018-11-12T21:52:54.101Z,98196.30
2018-11-12T21:55:23.182Z,98196.41
2018-11-12T21:57:52.210Z,98196.89
2018-11-12T22:00:24.284Z,98195.17
2018-11-12T22:02:56.547Z,98198.16
2018-11-12T22:05:26.035Z,98200.29
2018-11-12T22:07:55.007Z,98200.39
2018-11-12T22:10:23.997Z,98205.41
2018-11-12T22:12:53.512Z,98206.42
2018-11-12T22:15:22.535Z,98210.32
2018-11-12T22:17:51.713Z,98220.52
2018-11-12T22:20:23.071Z,98211.48
2018-11-12T22:22:52.077Z,98220.30
2018-11-12T22:25:22.062Z,98223.63
2018-11-12T22:27:51.954Z,98222.95
2018-11-12T22:30:22.130Z,98224.59
2018-11-12T22:32:52.272Z,98229.54
2018-11-12T22:35:21.289Z,98222.95
2018-11-12T22:37:50.567Z,98221.63
2018-11-12T22:40:20.273Z,98222.78
2018-11-12T22:42:50.181Z,98220.02
2018-11-12T22:45:20.341Z,98216.34
2018-11-12T22:47:49.701Z,98215.89
2018-11-12T22:50:18.766Z,98221.61
2018-11-12T22:52:47.860Z,98221.16
2018-11-12T22:55:17.780Z,98222.20
2018-11-12T22:57:46.908Z,98218.80
2018-11-12T23:00:27.241Z,98227.16
2018-11-12T23:02:56.897Z,98228.98
2018-11-12T23:05:26.176Z,98224.30
2018-11-12T23:07:55.645Z,98235.07
2018-11-12T23:10:24.617Z,98235.17
2018-11-12T23:12:53.767Z,98230.81
2018-11-12T23:15:22.812Z,98228.35
2018-11-12T23:17:51.842Z,98234.13
2018-11-12T23:20:22.996Z,98225.63
2018-11-12T23:22:52.502Z,98231.03
2018-11-12T23:25:21.529Z,98233.44
2018-11-12T23:27:51.103Z,98238.30
2018-11-12T23:30:21.328Z,98237.08
2018-11-12T23:32:50.343Z,98226.55
2018-11-12T23:35:20.699Z,98228.48
2018-11-12T23:37:50.031Z,98234.57
2018-11-12T23:40:19.132Z,98233.75
2018-11-12T23:42:48.648Z,98228.39
2018-11-12T23:45:17.702Z,98236.97
2018-11-12T23:47:46.729Z,98229.40
2018-11-12T23:50:22.569Z,98226.58
2018-11-12T23:52:52.400Z,98225.72
2018-11-12T23:55:21.752Z,98227.20
2018-11-12T23:57:50.972Z,98233.96
